sensor_id;sensor_type;location;lat;lon;timestamp;temperature;humidity
66608;DHT22;53462;39.616;8.824;2023-03-31T00:00:32;12.50;99.90
66608;DHT22;53462;39.616;8.824;2023-03-31T00:02:58;12.40;99.90
66608;DHT22;53462;39.616;8.824;2023-03-31T00:05:25;12.50;99.90
66608;DHT22;53462;39.616;8.824;2023-03-31T00:07:55;12.40;99.90
66608;DHT22;53462;39.616;8.824;2023-03-31T00:10:31;12.30;99.90
66608;DHT22;53462;39.616;8.824;2023-03-31T00:12:59;12.50;99.90
66608;DHT22;53462;39.616;8.824;2023-03-31T00:15:26;12.50;99.90
66608;DHT22;53462;39.616;8.824;2023-03-31T00:17:52;12.60;99.90
66608;DHT22;53462;39.616;8.824;2023-03-31T00:20:18;12.60;99.90
66608;DHT22;53462;39.616;8.824;2023-03-31T00:22:44;12.20;99.90
66608;DHT22;53462;39.616;8.824;2023-03-31T00:25:14;11.90;99.90
66608;DHT22;53462;39.616;8.824;2023-03-31T00:27:44;11.90;99.90
66608;DHT22;53462;39.616;8.824;2023-03-31T00:30:11;11.90;99.90
66608;DHT22;53462;39.616;8.824;2023-03-31T00:32:38;11.90;99.90
66608;DHT22;53462;39.616;8.824;2023-03-31T00:35:04;12.00;99.90
66608;DHT22;53462;39.616;8.824;2023-03-31T00:37:31;11.80;99.90
66608;DHT22;53462;39.616;8.824;2023-03-31T00:40:00;11.70;99.90
66608;DHT22;53462;39.616;8.824;2023-03-31T00:42:27;11.70;99.90
66608;DHT22;53462;39.616;8.824;2023-03-31T00:47:47;11.50;99.90
66608;DHT22;53462;39.616;8.824;2023-03-31T00:50:26;11.40;99.90
66608;DHT22;53462;39.616;8.824;2023-03-31T00:52:56;11.30;99.90
66608;DHT22;53462;39.616;8.824;2023-03-31T00:55:35;11.30;99.90
66608;DHT22;53462;39.616;8.824;2023-03-31T00:58:04;11.20;99.90
66608;DHT22;53462;39.616;8.824;2023-03-31T01:00:31;11.10;99.90
66608;DHT22;53462;39.616;8.824;2023-03-31T01:03:00;11.20;99.90
66608;DHT22;53462;39.616;8.824;2023-03-31T01:05:30;11.20;99.90
66608;DHT22;53462;39.616;8.824;2023-03-31T01:07:58;11.10;99.90
66608;DHT22;53462;39.616;8.824;2023-03-31T01:10:25;11.00;99.90
66608;DHT22;53462;39.616;8.824;2023-03-31T01:12:53;10.90;99.90
66608;DHT22;53462;39.616;8.824;2023-03-31T01:15:21;10.70;99.90
66608;DHT22;53462;39.616;8.824;2023-03-31T01:17:47;10.50;99.90
66608;DHT22;53462;39.616;8.824;2023-03-31T01:35:35;11.30;99.90
66608;DHT22;53462;39.616;8.824;2023-03-31T01:41:16;11.40;99.90
66608;DHT22;53462;39.616;8.824;2023-03-31T01:46:44;11.30;99.90
66608;DHT22;53462;39.616;8.824;2023-03-31T01:54:54;11.30;99.90
66608;DHT22;53462;39.616;8.824;2023-03-31T01:57:50;11.40;99.90
66608;DHT22;53462;39.616;8.824;2023-03-31T02:00:22;11.20;99.90
66608;DHT22;53462;39.616;8.824;2023-03-31T02:03:03;11.30;99.90
66608;DHT22;53462;39.616;8.824;2023-03-31T02:05:37;11.30;99.90
66608;DHT22;53462;39.616;8.824;2023-03-31T02:08:16;11.30;99.90
66608;DHT22;53462;39.616;8.824;2023-03-31T02:10:47;11.30;99.90
66608;DHT22;53462;39.616;8.824;2023-03-31T02:13:15;11.30;99.90
66608;DHT22;53462;39.616;8.824;2023-03-31T02:15:43;10.90;99.90
66608;DHT22;53462;39.616;8.824;2023-03-31T02:18:14;10.80;99.90
66608;DHT22;53462;39.616;8.824;2023-03-31T02:20:46;10.90;99.90
66608;DHT22;53462;39.616;8.824;2023-03-31T02:23:15;11.10;99.90
66608;DHT22;53462;39.616;8.824;2023-03-31T02:25:49;11.00;99.90
66608;DHT22;53462;39.616;8.824;2023-03-31T02:28:21;11.00;99.90
66608;DHT22;53462;39.616;8.824;2023-03-31T02:33:22;11.10;99.90
66608;DHT22;53462;39.616;8.824;2023-03-31T02:35:49;11.10;99.90
66608;DHT22;53462;39.616;8.824;2023-03-31T02:38:14;11.10;99.90
66608;DHT22;53462;39.616;8.824;2023-03-31T02:40:40;11.20;99.90
66608;DHT22;53462;39.616;8.824;2023-03-31T02:43:06;11.20;99.90
66608;DHT22;53462;39.616;8.824;2023-03-31T02:50:59;11.30;99.90
66608;DHT22;53462;39.616;8.824;2023-03-31T03:15:39;10.60;99.90
66608;DHT22;53462;39.616;8.824;2023-03-31T03:18:08;10.80;99.90
66608;DHT22;53462;39.616;8.824;2023-03-31T03:20:33;10.80;99.90
66608;DHT22;53462;39.616;8.824;2023-03-31T03:23:00;10.80;99.90
66608;DHT22;53462;39.616;8.824;2023-03-31T03:25:27;10.60;99.90
66608;DHT22;53462;39.616;8.824;2023-03-31T03:27:55;10.80;99.90
66608;DHT22;53462;39.616;8.824;2023-03-31T03:30:21;11.00;99.90
66608;DHT22;53462;39.616;8.824;2023-03-31T03:32:47;11.00;99.90
66608;DHT22;53462;39.616;8.824;2023-03-31T03:35:13;11.10;99.90
66608;DHT22;53462;39.616;8.824;2023-03-31T03:37:39;11.00;99.90
66608;DHT22;53462;39.616;8.824;2023-03-31T03:40:06;10.90;99.90
66608;DHT22;53462;39.616;8.824;2023-03-31T03:42:33;10.90;99.90
66608;DHT22;53462;39.616;8.824;2023-03-31T03:45:00;10.90;99.90
66608;DHT22;53462;39.616;8.824;2023-03-31T03:47:27;11.00;99.90
66608;DHT22;53462;39.616;8.824;2023-03-31T03:49:53;11.10;99.90
66608;DHT22;53462;39.616;8.824;2023-03-31T03:52:19;11.00;99.90
66608;DHT22;53462;39.616;8.824;2023-03-31T03:54:45;11.10;99.90
66608;DHT22;53462;39.616;8.824;2023-03-31T03:57:11;11.20;99.90
66608;DHT22;53462;39.616;8.824;2023-03-31T03:59:37;11.30;99.90
66608;DHT22;53462;39.616;8.824;2023-03-31T04:02:03;11.30;99.90
66608;DHT22;53462;39.616;8.824;2023-03-31T04:04:29;11.30;99.90
66608;DHT22;53462;39.616;8.824;2023-03-31T04:06:55;11.40;99.10
66608;DHT22;53462;39.616;8.824;2023-03-31T04:09:22;11.60;98.30
66608;DHT22;53462;39.616;8.824;2023-03-31T04:11:48;11.60;97.80
66608;DHT22;53462;39.616;8.824;2023-03-31T04:14:14;11.50;97.50
66608;DHT22;53462;39.616;8.824;2023-03-31T04:16:39;11.40;97.40
66608;DHT22;53462;39.616;8.824;2023-03-31T04:19:07;11.00;98.80
66608;DHT22;53462;39.616;8.824;2023-03-31T04:21:36;10.80;99.90
66608;DHT22;53462;39.616;8.824;2023-03-31T04:24:02;11.00;99.90
66608;DHT22;53462;39.616;8.824;2023-03-31T04:26:31;11.10;99.90
66608;DHT22;53462;39.616;8.824;2023-03-31T04:29:11;10.80;99.90
66608;DHT22;53462;39.616;8.824;2023-03-31T04:31:38;10.40;99.90
66608;DHT22;53462;39.616;8.824;2023-03-31T04:34:08;10.40;99.90
66608;DHT22;53462;39.616;8.824;2023-03-31T04:36:44;10.50;99.90
66608;DHT22;53462;39.616;8.824;2023-03-31T04:39:16;10.50;99.90
66608;DHT22;53462;39.616;8.824;2023-03-31T04:41:43;10.20;99.90
66608;DHT22;53462;39.616;8.824;2023-03-31T04:44:09;10.10;99.90
66608;DHT22;53462;39.616;8.824;2023-03-31T04:46:35;10.20;99.90
66608;DHT22;53462;39.616;8.824;2023-03-31T04:49:01;10.20;99.90
66608;DHT22;53462;39.616;8.824;2023-03-31T04:51:27;10.00;99.90
66608;DHT22;53462;39.616;8.824;2023-03-31T04:53:53;9.90;99.90
66608;DHT22;53462;39.616;8.824;2023-03-31T04:56:19;9.80;99.90
66608;DHT22;53462;39.616;8.824;2023-03-31T04:58:47;9.80;99.90
66608;DHT22;53462;39.616;8.824;2023-03-31T05:01:13;9.50;99.90
66608;DHT22;53462;39.616;8.824;2023-03-31T05:03:43;9.20;99.90
66608;DHT22;53462;39.616;8.824;2023-03-31T05:06:10;9.20;99.90
66608;DHT22;53462;39.616;8.824;2023-03-31T05:08:36;9.20;99.90
66608;DHT22;53462;39.616;8.824;2023-03-31T05:11:03;9.10;99.90
66608;DHT22;53462;39.616;8.824;2023-03-31T05:13:29;9.00;99.90
66608;DHT22;53462;39.616;8.824;2023-03-31T05:15:55;9.20;99.90
66608;DHT22;53462;39.616;8.824;2023-03-31T05:18:21;9.40;99.90
66608;DHT22;53462;39.616;8.824;2023-03-31T05:20:47;9.30;99.90
66608;DHT22;53462;39.616;8.824;2023-03-31T05:23:13;9.00;99.90
66608;DHT22;53462;39.616;8.824;2023-03-31T05:25:39;9.20;99.90
66608;DHT22;53462;39.616;8.824;2023-03-31T05:28:07;9.20;99.90
66608;DHT22;53462;39.616;8.824;2023-03-31T05:30:34;9.30;99.90
66608;DHT22;53462;39.616;8.824;2023-03-31T05:33:00;9.70;99.90
66608;DHT22;53462;39.616;8.824;2023-03-31T05:35:27;9.50;99.90
66608;DHT22;53462;39.616;8.824;2023-03-31T05:37:54;9.40;99.90
66608;DHT22;53462;39.616;8.824;2023-03-31T05:40:20;9.50;99.90
66608;DHT22;53462;39.616;8.824;2023-03-31T05:42:46;9.70;99.90
66608;DHT22;53462;39.616;8.824;2023-03-31T05:45:12;9.60;99.90
66608;DHT22;53462;39.616;8.824;2023-03-31T05:47:38;9.60;99.90
66608;DHT22;53462;39.616;8.824;2023-03-31T05:50:05;9.80;99.90
66608;DHT22;53462;39.616;8.824;2023-03-31T05:52:34;9.90;99.90
66608;DHT22;53462;39.616;8.824;2023-03-31T05:55:00;10.00;99.90
66608;DHT22;53462;39.616;8.824;2023-03-31T05:57:26;10.10;99.90
66608;DHT22;53462;39.616;8.824;2023-03-31T05:59:52;10.00;99.90
66608;DHT22;53462;39.616;8.824;2023-03-31T06:02:18;9.90;99.90
66608;DHT22;53462;39.616;8.824;2023-03-31T06:04:44;10.10;99.90
66608;DHT22;53462;39.616;8.824;2023-03-31T06:07:10;10.50;99.90
66608;DHT22;53462;39.616;8.824;2023-03-31T06:09:37;11.40;99.90
66608;DHT22;53462;39.616;8.824;2023-03-31T06:12:04;12.20;99.90
66608;DHT22;53462;39.616;8.824;2023-03-31T06:14:30;12.50;99.90
66608;DHT22;53462;39.616;8.824;2023-03-31T06:16:56;12.60;99.90
66608;DHT22;53462;39.616;8.824;2023-03-31T06:19:22;12.80;99.90
66608;DHT22;53462;39.616;8.824;2023-03-31T06:21:49;13.00;99.90
66608;DHT22;53462;39.616;8.824;2023-03-31T06:24:15;13.20;99.90
66608;DHT22;53462;39.616;8.824;2023-03-31T06:26:41;13.40;99.90
66608;DHT22;53462;39.616;8.824;2023-03-31T06:29:07;13.50;99.90
66608;DHT22;53462;39.616;8.824;2023-03-31T06:31:33;13.70;99.90
66608;DHT22;53462;39.616;8.824;2023-03-31T06:33:59;13.90;99.90
66608;DHT22;53462;39.616;8.824;2023-03-31T06:36:24;14.20;99.90
66608;DHT22;53462;39.616;8.824;2023-03-31T06:38:50;14.30;99.60
66608;DHT22;53462;39.616;8.824;2023-03-31T06:41:17;14.20;99.50
66608;DHT22;53462;39.616;8.824;2023-03-31T06:43:45;14.30;99.10
66608;DHT22;53462;39.616;8.824;2023-03-31T06:46:11;14.30;98.00
66608;DHT22;53462;39.616;8.824;2023-03-31T06:48:37;14.50;98.20
66608;DHT22;53462;39.616;8.824;2023-03-31T06:51:06;14.60;97.30
66608;DHT22;53462;39.616;8.824;2023-03-31T06:53:33;14.60;96.70
66608;DHT22;53462;39.616;8.824;2023-03-31T06:55:59;14.60;96.80
66608;DHT22;53462;39.616;8.824;2023-03-31T06:58:25;14.50;96.70
66608;DHT22;53462;39.616;8.824;2023-03-31T07:00:51;14.60;96.60
66608;DHT22;53462;39.616;8.824;2023-03-31T07:03:17;14.60;96.10
66608;DHT22;53462;39.616;8.824;2023-03-31T07:05:51;14.40;96.40
66608;DHT22;53462;39.616;8.824;2023-03-31T07:08:17;14.20;96.10
66608;DHT22;53462;39.616;8.824;2023-03-31T07:10:44;14.10;95.70
66608;DHT22;53462;39.616;8.824;2023-03-31T07:13:17;14.20;96.00
66608;DHT22;53462;39.616;8.824;2023-03-31T07:15:45;14.40;96.20
66608;DHT22;53462;39.616;8.824;2023-03-31T07:18:12;14.60;95.70
66608;DHT22;53462;39.616;8.824;2023-03-31T07:20:41;14.80;94.50
66608;DHT22;53462;39.616;8.824;2023-03-31T07:23:07;14.70;93.70
66608;DHT22;53462;39.616;8.824;2023-03-31T07:25:34;15.40;94.70
66608;DHT22;53462;39.616;8.824;2023-03-31T07:28:00;15.50;92.50
66608;DHT22;53462;39.616;8.824;2023-03-31T07:30:26;16.00;92.50
66608;DHT22;53462;39.616;8.824;2023-03-31T07:32:52;16.50;89.60
66608;DHT22;53462;39.616;8.824;2023-03-31T07:35:19;18.10;86.30
66608;DHT22;53462;39.616;8.824;2023-03-31T07:37:46;20.70;76.00
66608;DHT22;53462;39.616;8.824;2023-03-31T07:40:23;22.50;62.00
66608;DHT22;53462;39.616;8.824;2023-03-31T07:42:50;22.70;56.60
66608;DHT22;53462;39.616;8.824;2023-03-31T07:45:18;23.80;52.00
66608;DHT22;53462;39.616;8.824;2023-03-31T07:47:44;24.10;50.30
66608;DHT22;53462;39.616;8.824;2023-03-31T07:50:12;24.10;48.60
66608;DHT22;53462;39.616;8.824;2023-03-31T07:52:39;23.20;50.30
66608;DHT22;53462;39.616;8.824;2023-03-31T07:55:05;24.40;48.60
66608;DHT22;53462;39.616;8.824;2023-03-31T07:57:33;24.10;45.60
66608;DHT22;53462;39.616;8.824;2023-03-31T07:59:59;23.00;48.30
66608;DHT22;53462;39.616;8.824;2023-03-31T08:02:25;20.20;54.60
66608;DHT22;53462;39.616;8.824;2023-03-31T08:04:51;18.70;58.60
66608;DHT22;53462;39.616;8.824;2023-03-31T08:07:16;20.70;55.20
66608;DHT22;53462;39.616;8.824;2023-03-31T08:09:44;24.20;46.00
66608;DHT22;53462;39.616;8.824;2023-03-31T08:12:10;24.90;42.60
66608;DHT22;53462;39.616;8.824;2023-03-31T08:14:37;25.90;40.30
66608;DHT22;53462;39.616;8.824;2023-03-31T08:17:03;25.90;41.00
66608;DHT22;53462;39.616;8.824;2023-03-31T08:19:29;25.90;40.40
66608;DHT22;53462;39.616;8.824;2023-03-31T08:21:55;27.10;38.30
66608;DHT22;53462;39.616;8.824;2023-03-31T08:24:20;26.90;38.60
66608;DHT22;53462;39.616;8.824;2023-03-31T08:26:46;25.80;40.30
66608;DHT22;53462;39.616;8.824;2023-03-31T08:29:12;24.60;41.00
66608;DHT22;53462;39.616;8.824;2023-03-31T08:31:38;22.70;43.80
66608;DHT22;53462;39.616;8.824;2023-03-31T08:34:04;22.10;47.80
66608;DHT22;53462;39.616;8.824;2023-03-31T08:36:31;22.70;46.30
66608;DHT22;53462;39.616;8.824;2023-03-31T08:38:58;22.70;47.20
66608;DHT22;53462;39.616;8.824;2023-03-31T08:41:33;22.30;45.40
66608;DHT22;53462;39.616;8.824;2023-03-31T08:44:06;21.90;46.10
66608;DHT22;53462;39.616;8.824;2023-03-31T08:46:34;22.30;44.60
66608;DHT22;53462;39.616;8.824;2023-03-31T08:49:02;22.90;44.70
66608;DHT22;53462;39.616;8.824;2023-03-31T08:51:39;23.00;43.70
66608;DHT22;53462;39.616;8.824;2023-03-31T08:56:53;22.00;44.70
66608;DHT22;53462;39.616;8.824;2023-03-31T09:12:48;21.60;47.20
66608;DHT22;53462;39.616;8.824;2023-03-31T09:15:28;21.70;47.20
66608;DHT22;53462;39.616;8.824;2023-03-31T09:20:50;21.90;48.60
66608;DHT22;53462;39.616;8.824;2023-03-31T09:23:35;21.70;48.50
66608;DHT22;53462;39.616;8.824;2023-03-31T09:26:04;21.30;49.50
66608;DHT22;53462;39.616;8.824;2023-03-31T09:28:37;21.30;50.30
66608;DHT22;53462;39.616;8.824;2023-03-31T09:31:10;22.40;49.50
66608;DHT22;53462;39.616;8.824;2023-03-31T09:33:44;23.00;46.20
66608;DHT22;53462;39.616;8.824;2023-03-31T09:36:18;22.60;47.80
66608;DHT22;53462;39.616;8.824;2023-03-31T09:38:45;22.70;45.80
66608;DHT22;53462;39.616;8.824;2023-03-31T09:41:14;22.00;49.10
66608;DHT22;53462;39.616;8.824;2023-03-31T09:43:42;22.00;48.80
66608;DHT22;53462;39.616;8.824;2023-03-31T09:46:32;22.00;50.20
66608;DHT22;53462;39.616;8.824;2023-03-31T09:49:03;21.90;51.20
66608;DHT22;53462;39.616;8.824;2023-03-31T09:51:35;21.70;51.70
66608;DHT22;53462;39.616;8.824;2023-03-31T09:54:15;21.40;52.10
66608;DHT22;53462;39.616;8.824;2023-03-31T09:56:47;21.10;53.20
66608;DHT22;53462;39.616;8.824;2023-03-31T09:59:19;21.10;54.50
66608;DHT22;53462;39.616;8.824;2023-03-31T10:01:51;21.50;55.90
66608;DHT22;53462;39.616;8.824;2023-03-31T10:04:23;21.40;57.00
66608;DHT22;53462;39.616;8.824;2023-03-31T10:06:50;21.60;57.80
66608;DHT22;53462;39.616;8.824;2023-03-31T10:09:23;22.00;56.50
66608;DHT22;53462;39.616;8.824;2023-03-31T10:12:05;22.20;55.10
66608;DHT22;53462;39.616;8.824;2023-03-31T10:14:44;22.50;52.70
66608;DHT22;53462;39.616;8.824;2023-03-31T10:17:15;23.00;51.60
66608;DHT22;53462;39.616;8.824;2023-03-31T10:20:19;23.70;47.70
66608;DHT22;53462;39.616;8.824;2023-03-31T10:22:45;24.10;43.40
66608;DHT22;53462;39.616;8.824;2023-03-31T10:25:20;23.30;43.30
66608;DHT22;53462;39.616;8.824;2023-03-31T10:27:51;23.30;44.70
66608;DHT22;53462;39.616;8.824;2023-03-31T10:30:22;22.60;45.80
66608;DHT22;53462;39.616;8.824;2023-03-31T10:32:48;22.70;46.70
66608;DHT22;53462;39.616;8.824;2023-03-31T10:35:32;23.10;45.80
66608;DHT22;53462;39.616;8.824;2023-03-31T10:38:03;23.10;46.60
66608;DHT22;53462;39.616;8.824;2023-03-31T10:40:31;24.40;46.40
66608;DHT22;53462;39.616;8.824;2023-03-31T10:43:15;25.30;44.90
66608;DHT22;53462;39.616;8.824;2023-03-31T10:45:53;25.70;43.60
66608;DHT22;53462;39.616;8.824;2023-03-31T10:48:36;25.80;43.90
66608;DHT22;53462;39.616;8.824;2023-03-31T10:51:26;26.50;42.50
66608;DHT22;53462;39.616;8.824;2023-03-31T10:53:55;26.80;41.70
66608;DHT22;53462;39.616;8.824;2023-03-31T10:56:38;26.70;42.00
66608;DHT22;53462;39.616;8.824;2023-03-31T11:02:00;25.50;43.60
66608;DHT22;53462;39.616;8.824;2023-03-31T11:07:40;26.40;41.70
66608;DHT22;53462;39.616;8.824;2023-03-31T11:12:51;25.50;43.50
66608;DHT22;53462;39.616;8.824;2023-03-31T11:29:39;26.20;41.90
66608;DHT22;53462;39.616;8.824;2023-03-31T11:40:51;24.70;45.70
66608;DHT22;53462;39.616;8.824;2023-03-31T11:46:03;25.00;44.70
66608;DHT22;53462;39.616;8.824;2023-03-31T11:54:18;26.40;44.50
66608;DHT22;53462;39.616;8.824;2023-03-31T11:56:45;26.90;43.00
66608;DHT22;53462;39.616;8.824;2023-03-31T11:59:15;27.10;42.80
66608;DHT22;53462;39.616;8.824;2023-03-31T12:02:09;26.80;43.50
66608;DHT22;53462;39.616;8.824;2023-03-31T12:04:50;26.60;43.70
66608;DHT22;53462;39.616;8.824;2023-03-31T12:07:31;27.10;43.10
66608;DHT22;53462;39.616;8.824;2023-03-31T12:16:05;27.80;43.70
66608;DHT22;53462;39.616;8.824;2023-03-31T12:21:19;27.40;46.00
66608;DHT22;53462;39.616;8.824;2023-03-31T12:23:47;27.10;44.90
66608;DHT22;53462;39.616;8.824;2023-03-31T12:28:49;27.50;47.20
66608;DHT22;53462;39.616;8.824;2023-03-31T12:31:20;27.80;46.30
66608;DHT22;53462;39.616;8.824;2023-03-31T12:33:54;27.30;46.30
66608;DHT22;53462;39.616;8.824;2023-03-31T12:42:53;27.00;46.70
66608;DHT22;53462;39.616;8.824;2023-03-31T12:45:29;26.90;47.70
66608;DHT22;53462;39.616;8.824;2023-03-31T12:48:04;26.50;48.80
66608;DHT22;53462;39.616;8.824;2023-03-31T12:56:04;26.80;49.00
66608;DHT22;53462;39.616;8.824;2023-03-31T12:58:34;27.60;48.40
66608;DHT22;53462;39.616;8.824;2023-03-31T13:01:02;27.50;47.90
66608;DHT22;53462;39.616;8.824;2023-03-31T13:06:10;27.20;48.10
66608;DHT22;53462;39.616;8.824;2023-03-31T13:14:22;26.80;48.30
66608;DHT22;53462;39.616;8.824;2023-03-31T13:16:49;26.70;48.90
66608;DHT22;53462;39.616;8.824;2023-03-31T13:19:26;26.30;50.20
66608;DHT22;53462;39.616;8.824;2023-03-31T13:21:58;26.10;50.60
66608;DHT22;53462;39.616;8.824;2023-03-31T13:24:27;26.40;50.10
66608;DHT22;53462;39.616;8.824;2023-03-31T13:26:54;26.50;49.80
66608;DHT22;53462;39.616;8.824;2023-03-31T13:29:50;26.40;49.90
66608;DHT22;53462;39.616;8.824;2023-03-31T13:32:20;26.50;50.10
66608;DHT22;53462;39.616;8.824;2023-03-31T13:35:13;25.90;50.50
66608;DHT22;53462;39.616;8.824;2023-03-31T13:46:33;25.70;50.30
66608;DHT22;53462;39.616;8.824;2023-03-31T13:49:49;25.80;51.40
66608;DHT22;53462;39.616;8.824;2023-03-31T13:52:11;25.50;50.00
66608;DHT22;53462;39.616;8.824;2023-03-31T14:00:33;25.10;51.50
66608;DHT22;53462;39.616;8.824;2023-03-31T14:03:12;24.80;54.00
66608;DHT22;53462;39.616;8.824;2023-03-31T14:05:44;24.50;55.80
66608;DHT22;53462;39.616;8.824;2023-03-31T14:11:20;23.50;59.30
66608;DHT22;53462;39.616;8.824;2023-03-31T14:14:03;23.70;59.10
66608;DHT22;53462;39.616;8.824;2023-03-31T14:16:38;23.90;58.90
66608;DHT22;53462;39.616;8.824;2023-03-31T14:25:10;23.20;61.10
66608;DHT22;53462;39.616;8.824;2023-03-31T14:33:15;23.00;62.20
66608;DHT22;53462;39.616;8.824;2023-03-31T14:38:51;22.60;61.90
66608;DHT22;53462;39.616;8.824;2023-03-31T14:41:18;22.80;58.50
66608;DHT22;53462;39.616;8.824;2023-03-31T14:43:50;22.90;59.20
66608;DHT22;53462;39.616;8.824;2023-03-31T14:46:21;22.60;59.30
66608;DHT22;53462;39.616;8.824;2023-03-31T14:48:49;22.50;59.30
66608;DHT22;53462;39.616;8.824;2023-03-31T14:51:18;22.50;60.40
66608;DHT22;53462;39.616;8.824;2023-03-31T14:53:55;22.20;61.10
66608;DHT22;53462;39.616;8.824;2023-03-31T14:56:42;22.20;60.70
66608;DHT22;53462;39.616;8.824;2023-03-31T14:59:12;22.30;59.70
66608;DHT22;53462;39.616;8.824;2023-03-31T15:01:40;22.20;60.00
66608;DHT22;53462;39.616;8.824;2023-03-31T15:04:10;21.70;61.20
66608;DHT22;53462;39.616;8.824;2023-03-31T15:06:36;21.50;62.40
66608;DHT22;53462;39.616;8.824;2023-03-31T15:09:05;21.40;62.50
66608;DHT22;53462;39.616;8.824;2023-03-31T15:11:31;21.50;63.40
66608;DHT22;53462;39.616;8.824;2023-03-31T15:13:58;21.60;62.80
66608;DHT22;53462;39.616;8.824;2023-03-31T15:18:58;21.90;64.00
66608;DHT22;53462;39.616;8.824;2023-03-31T15:21:26;22.00;63.80
66608;DHT22;53462;39.616;8.824;2023-03-31T15:23:56;22.10;63.10
66608;DHT22;53462;39.616;8.824;2023-03-31T15:26:31;21.90;63.10
66608;DHT22;53462;39.616;8.824;2023-03-31T15:29:05;21.80;63.40
66608;DHT22;53462;39.616;8.824;2023-03-31T15:31:32;21.80;62.90
66608;DHT22;53462;39.616;8.824;2023-03-31T15:34:10;21.70;63.30
66608;DHT22;53462;39.616;8.824;2023-03-31T15:36:37;21.70;63.10
66608;DHT22;53462;39.616;8.824;2023-03-31T15:39:04;21.80;64.00
66608;DHT22;53462;39.616;8.824;2023-03-31T15:41:31;21.60;63.10
66608;DHT22;53462;39.616;8.824;2023-03-31T15:44:18;21.40;62.80
66608;DHT22;53462;39.616;8.824;2023-03-31T15:47:01;21.40;63.90
66608;DHT22;53462;39.616;8.824;2023-03-31T15:49:31;21.30;65.20
66608;DHT22;53462;39.616;8.824;2023-03-31T15:51:57;21.20;66.10
66608;DHT22;53462;39.616;8.824;2023-03-31T15:54:45;21.00;63.90
66608;DHT22;53462;39.616;8.824;2023-03-31T15:57:15;21.00;63.90
66608;DHT22;53462;39.616;8.824;2023-03-31T15:59:51;21.00;64.10
66608;DHT22;53462;39.616;8.824;2023-03-31T16:02:37;21.00;65.70
66608;DHT22;53462;39.616;8.824;2023-03-31T16:05:04;20.90;65.50
66608;DHT22;53462;39.616;8.824;2023-03-31T16:07:33;20.80;66.50
66608;DHT22;53462;39.616;8.824;2023-03-31T16:10:02;20.60;66.30
66608;DHT22;53462;39.616;8.824;2023-03-31T16:12:54;20.80;66.90
66608;DHT22;53462;39.616;8.824;2023-03-31T16:15:22;20.90;67.40
66608;DHT22;53462;39.616;8.824;2023-03-31T16:18:04;21.00;67.20
66608;DHT22;53462;39.616;8.824;2023-03-31T16:20:38;20.70;68.50
66608;DHT22;53462;39.616;8.824;2023-03-31T16:23:18;20.80;68.80
66608;DHT22;53462;39.616;8.824;2023-03-31T16:25:46;20.60;69.30
66608;DHT22;53462;39.616;8.824;2023-03-31T16:28:19;20.40;70.30
66608;DHT22;53462;39.616;8.824;2023-03-31T16:30:47;19.90;73.00
66608;DHT22;53462;39.616;8.824;2023-03-31T16:33:16;19.90;75.50
66608;DHT22;53462;39.616;8.824;2023-03-31T16:35:46;19.70;75.70
66608;DHT22;53462;39.616;8.824;2023-03-31T16:38:18;19.60;76.60
66608;DHT22;53462;39.616;8.824;2023-03-31T16:40:47;19.80;76.60
66608;DHT22;53462;39.616;8.824;2023-03-31T16:43:17;19.70;77.00
66608;DHT22;53462;39.616;8.824;2023-03-31T16:45:45;19.50;78.50
66608;DHT22;53462;39.616;8.824;2023-03-31T16:48:13;19.30;78.70
66608;DHT22;53462;39.616;8.824;2023-03-31T16:50:39;19.10;79.40
66608;DHT22;53462;39.616;8.824;2023-03-31T16:53:05;19.00;80.70
66608;DHT22;53462;39.616;8.824;2023-03-31T16:55:31;18.60;82.40
66608;DHT22;53462;39.616;8.824;2023-03-31T16:57:58;18.60;83.70
66608;DHT22;53462;39.616;8.824;2023-03-31T17:00:31;18.60;84.80
66608;DHT22;53462;39.616;8.824;2023-03-31T17:03:00;18.40;85.30
66608;DHT22;53462;39.616;8.824;2023-03-31T17:05:27;18.40;86.70
66608;DHT22;53462;39.616;8.824;2023-03-31T17:07:56;18.30;87.00
66608;DHT22;53462;39.616;8.824;2023-03-31T17:10:23;18.30;87.60
66608;DHT22;53462;39.616;8.824;2023-03-31T17:12:49;18.30;88.10
66608;DHT22;53462;39.616;8.824;2023-03-31T17:15:15;18.20;88.20
66608;DHT22;53462;39.616;8.824;2023-03-31T17:17:41;18.10;89.00
66608;DHT22;53462;39.616;8.824;2023-03-31T17:20:08;18.20;89.30
66608;DHT22;53462;39.616;8.824;2023-03-31T17:22:35;18.00;89.60
66608;DHT22;53462;39.616;8.824;2023-03-31T17:25:01;18.10;90.60
66608;DHT22;53462;39.616;8.824;2023-03-31T17:27:28;18.00;90.90
66608;DHT22;53462;39.616;8.824;2023-03-31T17:29:54;18.00;91.60
66608;DHT22;53462;39.616;8.824;2023-03-31T17:32:21;18.00;91.20
66608;DHT22;53462;39.616;8.824;2023-03-31T17:34:47;17.90;91.80
66608;DHT22;53462;39.616;8.824;2023-03-31T17:37:14;17.70;92.40
66608;DHT22;53462;39.616;8.824;2023-03-31T17:39:41;17.80;93.20
66608;DHT22;53462;39.616;8.824;2023-03-31T17:42:08;17.80;92.70
66608;DHT22;53462;39.616;8.824;2023-03-31T17:44:34;17.80;92.90
66608;DHT22;53462;39.616;8.824;2023-03-31T17:47:00;17.90;92.30
66608;DHT22;53462;39.616;8.824;2023-03-31T17:49:26;17.70;92.20
66608;DHT22;53462;39.616;8.824;2023-03-31T17:51:53;17.70;92.40
66608;DHT22;53462;39.616;8.824;2023-03-31T17:54:19;17.50;93.00
66608;DHT22;53462;39.616;8.824;2023-03-31T17:56:46;17.60;93.00
66608;DHT22;53462;39.616;8.824;2023-03-31T17:59:15;17.50;93.10
66608;DHT22;53462;39.616;8.824;2023-03-31T18:01:41;17.60;93.40
66608;DHT22;53462;39.616;8.824;2023-03-31T18:04:07;17.50;93.70
66608;DHT22;53462;39.616;8.824;2023-03-31T18:06:33;17.40;94.50
66608;DHT22;53462;39.616;8.824;2023-03-31T18:08:59;17.20;95.20
66608;DHT22;53462;39.616;8.824;2023-03-31T18:11:25;17.10;95.70
66608;DHT22;53462;39.616;8.824;2023-03-31T18:13:52;16.90;96.30
66608;DHT22;53462;39.616;8.824;2023-03-31T18:16:19;17.00;96.60
66608;DHT22;53462;39.616;8.824;2023-03-31T18:18:45;17.00;96.20
66608;DHT22;53462;39.616;8.824;2023-03-31T18:21:12;17.00;96.10
66608;DHT22;53462;39.616;8.824;2023-03-31T18:23:38;16.80;96.00
66608;DHT22;53462;39.616;8.824;2023-03-31T18:26:09;17.00;95.70
66608;DHT22;53462;39.616;8.824;2023-03-31T18:28:36;16.90;95.20
66608;DHT22;53462;39.616;8.824;2023-03-31T18:31:03;17.00;94.50
66608;DHT22;53462;39.616;8.824;2023-03-31T18:33:29;17.00;94.60
66608;DHT22;53462;39.616;8.824;2023-03-31T18:35:55;17.00;94.20
66608;DHT22;53462;39.616;8.824;2023-03-31T18:38:25;17.00;94.70
66608;DHT22;53462;39.616;8.824;2023-03-31T18:40:53;17.00;94.90
66608;DHT22;53462;39.616;8.824;2023-03-31T18:43:20;16.90;95.30
66608;DHT22;53462;39.616;8.824;2023-03-31T18:45:48;17.00;95.90
66608;DHT22;53462;39.616;8.824;2023-03-31T18:48:14;16.80;95.80
66608;DHT22;53462;39.616;8.824;2023-03-31T18:50:43;16.70;96.30
66608;DHT22;53462;39.616;8.824;2023-03-31T18:53:09;16.50;96.50